Time;durP1;ratioP1;P1;durP2;ratioP2;P2;SDS_P1;SDS_P2;PMS_P1;PMS_P2;Temp;Humidity;BMP_temperature;BMP_pressure;BME280_temperature;BME280_humidity;BME280_pressure;Samples;Min_cycle;Max_cycle;Signal;HPM_P1;HPM_P2
2022/11/26 00:01:38;;;;;;;24.42;11.57;;;;;;;5.02;67.86;95722.09;5043762;28;20565;-74
2022/11/26 00:04:03;;;;;;;23.30;12.00;;;;;;;4.48;66.97;95637.16;5048508;28;20036;-74
2022/11/26 00:06:38;;;;;;;33.58;13.77;;;;;;;5.13;66.75;95720.50;5057080;28;20327;-75
2022/11/26 00:09:14;;;;;;;25.05;13.13;;;;;;;4.87;66.77;95680.47;5051274;28;20102;-74
2022/11/26 00:11:39;;;;;;;24.92;12.70;;;;;;;5.00;66.86;95703.91;5040608;28;20040;-74
2022/11/26 00:14:16;;;;;;;20.95;12.55;;;;;;;5.09;66.69;95721.97;5052704;28;20095;-75
2022/11/26 00:16:43;;;;;;;25.45;12.25;;;;;;;4.87;66.67;95698.84;5039965;28;20064;-74
2022/11/26 00:19:09;;;;;;;28.48;13.43;;;;;;;4.50;66.93;95637.72;5039511;28;20123;-74
2022/11/26 00:21:37;;;;;;;36.72;16.00;;;;;;;4.91;66.54;95713.13;5052838;28;20033;-74
2022/11/26 00:24:03;;;;;;;36.25;15.10;;;;;;;5.00;66.59;95713.63;5052496;28;20144;-75
2022/11/26 00:26:29;;;;;;;31.63;13.93;;;;;;;4.80;66.98;95699.97;5041590;28;20534;-74
2022/11/26 00:28:58;;;;;;;26.40;13.73;;;;;;;4.39;67.40;95629.81;5052294;28;20115;-75
2022/11/26 00:31:25;;;;;;;49.50;22.08;;;;;;;4.57;67.21;95683.13;5052585;28;20049;-74
2022/11/26 00:33:51;;;;;;;45.15;23.02;;;;;;;4.77;66.89;95726.69;5052346;28;20041;-74
2022/11/26 00:36:20;;;;;;;42.45;21.58;;;;;;;4.79;66.62;95719.38;5045782;28;20098;-76
2022/11/26 00:38:50;;;;;;;39.25;20.15;;;;;;;4.49;66.47;95680.00;5038735;28;20531;-74
2022/11/26 00:41:20;;;;;;;45.38;21.65;;;;;;;4.54;66.79;95701.94;5041141;28;20051;-74
2022/11/26 00:43:45;;;;;;;40.88;21.45;;;;;;;4.40;66.60;95695.25;5051230;28;20099;-74
2022/11/26 00:46:17;;;;;;;49.42;22.15;;;;;;;4.27;66.76;95693.59;5052122;28;20037;-75
2022/11/26 00:48:42;;;;;;;40.85;19.63;;;;;;;4.15;67.46;95676.19;5051927;28;20498;-74
2022/11/26 00:51:14;;;;;;;37.58;20.23;;;;;;;4.38;67.38;95728.81;5033898;28;20132;-75
2022/11/26 00:53:40;;;;;;;;;;;;;;;4.35;67.56;95731.88;5052511;28;20029;-74
2022/11/26 00:56:11;;;;;;;42.30;22.75;;;;;;;3.29;67.06;95582.72;5052019;28;20368;-74
2022/11/26 00:58:37;;;;;;;;;;;;;;;4.20;67.47;95750.63;5067779;28;20044;-74
2022/11/26 01:01:02;;;;;;;40.55;19.75;;;;;;;4.15;67.51;95740.00;5033946;28;19916;-74
2022/11/26 01:03:28;;;;;;;40.13;19.85;;;;;;;3.64;67.63;95661.63;5033368;28;20044;-74
2022/11/26 01:05:57;;;;;;;40.97;20.88;;;;;;;3.99;68.30;95718.78;5051992;28;20033;-75
2022/11/26 01:08:33;;;;;;;35.08;20.17;;;;;;;4.03;68.27;95739.13;5033401;28;20037;-74
2022/11/26 01:11:01;;;;;;;39.55;19.20;;;;;;;4.04;68.40;95732.88;5033560;28;20047;-74
2022/11/26 01:13:27;;;;;;;36.22;19.50;;;;;;;3.85;68.57;95726.00;5051342;28;20112;-74
2022/11/26 01:15:57;;;;;;;39.03;19.95;;;;;;;3.99;68.71;95750.25;5033853;28;20599;-74
2022/11/26 01:18:23;;;;;;;41.13;19.98;;;;;;;3.82;68.89;95739.53;5051821;28;20414;-75
2022/11/26 01:20:49;;;;;;;33.13;18.05;;;;;;;3.12;68.56;95631.50;5032607;28;20048;-75
2022/11/26 01:23:17;;;;;;;37.05;19.33;;;;;;;3.23;68.82;95657.00;5066716;28;20041;-75
2022/11/26 01:25:45;;;;;;;34.17;18.25;;;;;;;3.43;69.33;95699.56;5051769;28;20120;-75
2022/11/26 01:28:13;;;;;;;32.45;18.65;;;;;;;3.89;68.73;95766.53;5051279;28;20110;-75
2022/11/26 01:30:39;;;;;;;37.38;19.38;;;;;;;3.22;68.82;95663.25;5033431;28;20037;-74
2022/11/26 01:33:04;;;;;;;36.47;19.15;;;;;;;3.24;68.72;95678.75;5033522;28;20044;-74
2022/11/26 01:35:30;;;;;;;36.55;19.05;;;;;;;3.46;68.67;95714.06;5051177;28;20574;-75
2022/11/26 01:37:56;;;;;;;37.83;18.75;;;;;;;2.91;68.61;95637.09;5033368;28;20098;-74
2022/11/26 01:40:30;;;;;;;38.05;19.67;;;;;;;3.78;69.43;95775.09;5066070;28;20272;-74
2022/11/26 01:42:59;;;;;;;35.28;18.75;;;;;;;3.74;69.67;95766.03;5051072;28;21523;-74
2022/11/26 01:45:25;;;;;;;38.42;20.10;;;;;;;3.22;69.49;95684.22;5050855;28;20033;-75
2022/11/26 01:47:51;;;;;;;33.80;17.65;;;;;;;3.64;69.69;95777.06;5051029;28;20038;-74
2022/11/26 01:50:31;;;;;;;29.98;16.67;;;;;;;3.57;70.10;95763.19;5033050;28;20041;-75
2022/11/26 01:53:04;;;;;;;32.15;16.08;;;;;;;3.25;70.09;95746.72;5050845;28;20033;-75
2022/11/26 01:55:37;;;;;;;31.52;17.05;;;;;;;3.43;70.40;95769.56;5033837;28;20056;-74
2022/11/26 01:58:06;;;;;;;30.42;16.83;;;;;;;2.94;69.90;95670.75;5051029;28;20533;-74
2022/11/26 02:00:32;;;;;;;32.53;15.82;;;;;;;3.31;69.91;95747.66;5034555;28;20028;-74
2022/11/26 02:02:57;;;;;;;31.23;15.90;;;;;;;3.10;69.84;95720.00;5055153;28;20499;-74
2022/11/26 02:05:27;;;;;;;32.35;17.00;;;;;;;3.29;69.49;95729.53;5032802;28;20052;-74
2022/11/26 02:07:52;;;;;;;30.30;15.05;;;;;;;3.33;69.57;95748.25;5050838;28;20048;-74
2022/11/26 02:10:18;;;;;;;31.98;16.48;;;;;;;3.23;69.18;95727.75;5050569;28;20041;-74
2022/11/26 02:12:43;;;;;;;32.72;16.40;;;;;;;3.20;69.50;95724.78;5050471;28;20502;-74
2022/11/26 02:15:10;;;;;;;32.30;15.70;;;;;;;3.32;69.37;95768.44;5050855;28;20422;-74
2022/11/26 02:17:45;;;;;;;33.83;15.45;;;;;;;2.88;69.49;95703.03;5050780;28;20176;-74
2022/11/26 02:20:39;;;;;;;36.20;16.75;;;;;;;3.25;69.89;95770.31;5050422;28;20056;-75
2022/11/26 02:23:18;;;;;;;32.15;17.08;;;;;;;2.35;69.07;95603.91;5046167;28;20037;-74
2022/11/26 02:26:16;;;;;;;36.55;17.75;;;;;;;3.32;69.18;95767.63;5050550;28;20048;-75
2022/11/26 02:29:00;;;;;;;28.27;16.60;;;;;;;3.35;69.31;95764.59;5041259;28;20486;-76
2022/11/26 02:31:39;;;;;;;32.03;17.45;;;;;;;3.33;69.27;95770.03;5031274;28;20041;-76
2022/11/26 02:34:29;;;;;;;33.65;15.93;;;;;;;2.92;69.91;95717.31;5031439;28;20595;-76
2022/11/26 02:36:59;;;;;;;32.75;17.35;;;;;;;2.30;69.96;95622.03;5044522;28;20037;-76
2022/11/26 02:39:27;;;;;;;34.53;16.58;;;;;;;3.14;70.21;95755.25;5049539;28;20075;-76
2022/11/26 02:41:55;;;;;;;31.13;17.30;;;;;;;3.18;70.15;95745.16;5031939;28;20460;-76
2022/11/26 02:44:25;;;;;;;40.15;19.08;;;;;;;2.95;69.98;95716.91;5031098;28;20075;-76
2022/11/26 02:46:57;;;;;;;34.80;18.73;;;;;;;3.25;69.79;95756.38;5031944;28;20051;-76
2022/11/26 02:49:28;;;;;;;34.90;17.65;;;;;;;2.83;70.83;95729.88;5049433;28;20044;-76
2022/11/26 02:51:57;;;;;;;34.87;18.27;;;;;;;3.19;70.72;95765.91;5049889;28;20525;-78
2022/11/26 02:54:24;;;;;;;30.85;17.23;;;;;;;3.24;70.01;95760.84;5048614;28;20303;-78
2022/11/26 02:56:51;;;;;;;37.35;18.20;;;;;;;3.21;69.96;95761.25;5049675;28;20068;-77
2022/11/26 02:59:18;;;;;;;31.20;17.33;;;;;;;3.05;70.20;95767.81;5049386;28;20045;-77
2022/11/26 03:01:51;;;;;;;36.38;17.20;;;;;;;2.73;70.81;95740.03;5064629;28;20047;-78
2022/11/26 03:04:24;;;;;;;34.70;16.33;;;;;;;3.00;70.69;95777.31;5048729;28;20071;-78
2022/11/26 03:06:51;;;;;;;36.88;16.92;;;;;;;2.92;70.56;95761.84;5049592;28;20412;-77
2022/11/26 03:09:17;;;;;;;32.55;16.73;;;;;;;3.01;70.20;95782.34;5048835;28;20598;-76
2022/11/26 03:11:43;;;;;;;30.33;15.43;;;;;;;2.97;70.44;95789.03;5049373;28;20107;-76
2022/11/26 03:14:09;;;;;;;32.88;17.90;;;;;;;2.48;70.31;95718.19;5048992;28;20053;-77
2022/11/26 03:16:34;;;;;;;33.65;16.85;;;;;;;3.00;70.73;95786.00;5031309;28;20033;-77
2022/11/26 03:19:00;;;;;;;35.53;17.98;;;;;;;2.95;71.05;95793.69;5049679;28;20117;-77
2022/11/26 03:21:25;;;;;;;32.90;16.92;;;;;;;2.97;71.12;95794.28;5048869;28;20116;-77
2022/11/26 03:23:51;;;;;;;32.60;16.70;;;;;;;2.38;70.90;95707.38;5030784;28;20161;-77
2022/11/26 03:26:17;;;;;;;33.53;16.90;;;;;;;2.83;70.88;95784.06;5031180;28;20132;-77
2022/11/26 03:28:42;;;;;;;33.53;16.77;;;;;;;2.57;71.04;95743.13;5049027;28;20583;-77
2022/11/26 03:31:08;;;;;;;35.70;17.60;;;;;;;2.89;71.01;95794.53;5049137;28;21120;-77
2022/11/26 03:33:33;;;;;;;31.85;16.15;;;;;;;2.90;71.06;95816.31;5048887;28;20120;-77
2022/11/26 03:35:59;;;;;;;34.40;18.35;;;;;;;2.20;72.83;95749.94;5030773;28;20036;-77
2022/11/26 03:38:24;;;;;;;31.58;17.73;;;;;;;2.84;72.32;95828.41;5030754;28;20124;-77
2022/11/26 03:41:04;;;;;;;40.50;17.33;;;;;;;2.05;71.38;95690.03;5049213;28;20087;-77
2022/11/26 03:43:29;;;;;;;33.60;16.58;;;;;;;2.34;71.04;95738.41;5036165;28;20051;-77
2022/11/26 03:45:54;;;;;;;31.88;17.38;;;;;;;2.23;71.45;95731.19;5053053;28;20033;-77
2022/11/26 03:48:20;;;;;;;33.38;16.65;;;;;;;2.70;71.54;95829.47;5035130;28;20075;-77
2022/11/26 03:50:46;;;;;;;32.60;17.20;;;;;;;2.70;71.69;95827.66;5035080;28;20035;-76
2022/11/26 03:53:11;;;;;;;30.75;16.63;;;;;;;2.04;71.22;95725.03;5034812;28;20480;-76
2022/11/26 03:55:36;;;;;;;30.75;16.95;;;;;;;2.20;70.95;95770.88;5052405;28;20029;-77
2022/11/26 03:58:02;;;;;;;30.98;16.85;;;;;;;2.59;71.07;95846.66;5052157;28;20090;-77
2022/11/26 04:00:27;;;;;;;31.10;17.55;;;;;;;2.29;71.27;95846.31;5052832;28;20502;-76
2022/11/26 04:02:53;;;;;;;31.55;16.85;;;;;;;2.21;71.94;95828.22;5060900;28;20036;-77
2022/11/26 04:05:18;;;;;;;35.55;17.55;;;;;;;1.91;71.99;95783.41;5055578;28;20449;-77
2022/11/26 04:07:44;;;;;;;33.40;17.23;;;;;;;2.03;73.08;95835.13;5053019;28;20036;-76
2022/11/26 04:10:10;;;;;;;35.63;17.27;;;;;;;1.87;72.49;95784.03;5053030;28;20041;-77
2022/11/26 04:12:35;;;;;;;32.03;17.25;;;;;;;2.33;73.07;95854.59;5052182;28;20061;-77
2022/11/26 04:15:02;;;;;;;31.92;17.85;;;;;;;1.64;73.09;95757.53;5052738;28;20037;-77
2022/11/26 04:17:27;;;;;;;43.33;18.27;;;;;;;2.25;72.68;95839.91;5052381;28;20029;-77
2022/11/26 04:19:52;;;;;;;38.80;17.60;;;;;;;1.61;73.12;95740.44;5035139;28;20753;-77
2022/11/26 04:22:19;;;;;;;31.85;15.07;;;;;;;1.94;73.35;95808.38;5051987;28;20195;-77
2022/11/26 04:24:45;;;;;;;37.47;16.70;;;;;;;2.33;73.04;95858.00;5052854;28;20118;-78
2022/11/26 04:27:10;;;;;;;30.70;16.42;;;;;;;2.05;73.05;95826.06;5052124;28;20124;-77
2022/11/26 04:29:36;;;;;;;36.28;16.77;;;;;;;1.86;72.97;95798.13;5034648;28;20036;-77
2022/11/26 04:32:02;;;;;;;29.70;17.90;;;;;;;2.36;72.87;95882.16;5052924;28;20556;-77
2022/11/26 04:34:27;;;;;;;31.67;17.58;;;;;;;2.44;73.10;95872.25;5052310;28;20040;-77
2022/11/26 04:36:53;;;;;;;37.85;18.83;;;;;;;2.34;72.82;95887.59;5034140;28;20041;-77
2022/11/26 04:39:18;;;;;;;31.85;15.95;;;;;;;2.31;73.42;95891.44;5052259;28;20754;-77
2022/11/26 04:41:44;;;;;;;35.95;18.00;;;;;;;2.25;73.19;95891.44;5052849;28;20037;-77
2022/11/26 04:44:09;;;;;;;34.75;17.80;;;;;;;1.83;73.49;95825.47;5034093;28;20049;-76
2022/11/26 04:46:35;;;;;;;31.48;17.30;;;;;;;1.83;74.50;95841.16;5052066;28;20044;-77
2022/11/26 04:49:00;;;;;;;38.53;17.55;;;;;;;2.19;76.10;95906.16;5052543;28;20049;-76
2022/11/26 04:51:25;;;;;;;31.92;17.70;;;;;;;2.20;77.43;95904.34;5052678;28;20041;-77
2022/11/26 04:53:51;;;;;;;33.92;17.67;;;;;;;1.89;76.80;95836.97;5052284;28;20120;-77
2022/11/26 04:56:16;;;;;;;36.92;18.35;;;;;;;1.76;77.84;95829.91;5051023;28;20434;-76
2022/11/26 04:58:41;;;;;;;32.45;17.05;;;;;;;2.14;78.02;95910.38;5051529;28;20411;-77
2022/11/26 05:01:07;;;;;;;32.92;18.05;;;;;;;1.94;77.90;95876.38;5034241;28;20033;-78
2022/11/26 05:03:33;;;;;;;37.65;18.52;;;;;;;1.73;76.47;95842.59;5051870;28;20067;-77
2022/11/26 05:05:58;;;;;;;32.13;17.55;;;;;;;2.32;76.57;95918.41;5052377;28;20034;-78
2022/11/26 05:08:23;;;;;;;32.20;17.73;;;;;;;1.49;75.68;95779.47;5066660;28;20076;-78
2022/11/26 05:10:53;;;;;;;34.17;16.80;;;;;;;2.39;75.37;95915.78;5034259;28;20707;-78
2022/11/26 05:13:19;;;;;;;28.38;16.65;;;;;;;1.86;74.99;95829.50;5033737;28;20041;-78
2022/11/26 05:15:44;;;;;;;32.47;16.42;;;;;;;2.43;74.42;95922.22;5033883;28;20048;-77
2022/11/26 05:18:11;;;;;;;31.60;18.45;;;;;;;2.41;73.87;95919.00;5033269;28;20045;-78
2022/11/26 05:20:37;;;;;;;31.98;18.90;;;;;;;2.32;74.12;95900.09;5051658;28;20041;-78
2022/11/26 05:23:02;;;;;;;31.45;17.00;;;;;;;2.49;74.21;95924.81;5051894;28;20116;-78
2022/11/26 05:25:27;;;;;;;30.52;17.73;;;;;;;2.44;74.17;95945.56;5051426;28;20678;-77
2022/11/26 05:27:53;;;;;;;32.10;17.67;;;;;;;2.47;73.60;95936.50;5033301;28;20037;-78
2022/11/26 05:30:18;;;;;;;35.50;18.98;;;;;;;1.98;73.30;95854.06;5051148;28;20117;-78
2022/11/26 05:32:44;;;;;;;39.80;18.80;;;;;;;2.35;73.36;95912.78;5051349;28;20041;-78
2022/11/26 05:35:09;;;;;;;35.35;18.08;;;;;;;1.74;73.55;95807.59;5033320;28;20037;-77
2022/11/26 05:37:35;;;;;;;36.15;17.85;;;;;;;2.51;74.13;95940.34;5051023;28;20039;-77
2022/11/26 05:40:01;;;;;;;31.85;17.63;;;;;;;2.48;73.65;95949.41;5051333;28;20482;-77
2022/11/26 05:42:26;;;;;;;32.10;18.85;;;;;;;1.88;73.83;95864.94;5051043;28;20037;-78
2022/11/26 05:44:52;;;;;;;42.10;20.25;;;;;;;2.38;73.20;95922.00;5033207;28;20075;-77
2022/11/26 05:47:17;;;;;;;31.83;16.67;;;;;;;1.88;73.34;95851.84;5061157;28;20063;-78
2022/11/26 05:49:42;;;;;;;32.85;17.70;;;;;;;2.39;73.63;95948.00;5032708;28;20044;-77
2022/11/26 05:52:08;;;;;;;26.00;16.10;;;;;;;2.30;73.48;95920.41;5057629;28;20076;-78
2022/11/26 05:54:33;;;;;;;35.08;18.02;;;;;;;1.98;74.61;95872.38;5050896;28;20052;-77
2022/11/26 05:56:58;;;;;;;30.98;16.85;;;;;;;2.35;74.79;95943.38;5049683;28;20099;-78
2022/11/26 05:59:24;;;;;;;31.35;16.73;;;;;;;2.49;75.24;95948.41;5049825;28;20076;-78
2022/11/26 06:01:49;;;;;;;27.77;16.05;;;;;;;2.08;76.08;95903.34;5051323;28;20111;-77
2022/11/26 06:04:15;;;;;;;32.53;16.85;;;;;;;2.21;76.16;95916.44;5050808;28;20029;-78
2022/11/26 06:06:40;;;;;;;36.05;17.63;;;;;;;2.61;75.71;95967.69;5051094;28;20041;-78
2022/11/26 06:09:06;;;;;;;40.00;18.50;;;;;;;1.64;75.85;95800.16;5050535;28;20048;-77
2022/11/26 06:11:31;;;;;;;33.90;17.70;;;;;;;2.70;75.61;95957.81;5050732;28;20041;-77
2022/11/26 06:13:56;;;;;;;33.10;17.33;;;;;;;2.69;75.31;95967.47;5050715;28;20048;-77
2022/11/26 06:16:22;;;;;;;29.60;16.15;;;;;;;2.66;75.29;95939.09;5050486;28;20108;-77
2022/11/26 06:18:47;;;;;;;40.15;16.73;;;;;;;2.89;74.63;95977.13;5032664;28;20048;-77
2022/11/26 06:21:13;;;;;;;29.75;16.15;;;;;;;2.67;74.63;95932.03;5050269;28;20067;-77
2022/11/26 06:23:38;;;;;;;35.58;18.02;;;;;;;2.61;74.62;95917.13;5048867;28;20048;-77
2022/11/26 06:26:09;;;;;;;32.33;16.88;;;;;;;2.97;74.42;95964.59;5050796;28;20037;-77
2022/11/26 06:28:34;;;;;;;32.20;17.60;;;;;;;2.65;74.27;95910.50;5050559;28;20099;-77
2022/11/26 06:30:59;;;;;;;35.67;17.85;;;;;;;2.92;74.28;95956.53;5031816;28;20041;-77
2022/11/26 06:33:25;;;;;;;31.95;15.93;;;;;;;2.75;74.14;95926.56;5050483;28;20104;-77
2022/11/26 06:35:50;;;;;;;29.25;16.67;;;;;;;2.66;74.26;95915.53;5049889;28;20048;-77
2022/11/26 06:38:15;;;;;;;32.80;17.02;;;;;;;2.82;74.63;95930.00;5050161;28;20064;-77
2022/11/26 06:40:41;;;;;;;31.08;16.77;;;;;;;3.16;74.09;95983.06;5049831;28;20052;-78
2022/11/26 06:43:07;;;;;;;31.98;16.05;;;;;;;3.20;74.23;95973.78;5032252;28;20538;-77
2022/11/26 06:45:33;;;;;;;31.30;15.32;;;;;;;3.27;74.18;95983.25;5065384;28;20075;-77
2022/11/26 06:47:58;;;;;;;32.72;15.43;;;;;;;2.98;74.01;95926.88;5049660;28;20041;-77
2022/11/26 06:50:24;;;;;;;32.38;15.95;;;;;;;3.08;74.15;95929.06;5049724;28;20190;-77
2022/11/26 06:52:51;;;;;;;28.73;14.70;;;;;;;3.03;73.99;95910.56;5031924;28;20037;-78
2022/11/26 06:55:17;;;;;;;29.52;15.90;;;;;;;3.56;74.29;95986.31;5031837;28;20041;-77
2022/11/26 06:57:43;;;;;;;35.45;16.27;;;;;;;3.21;74.03;95915.91;5032047;28;20043;-78
2022/11/26 07:00:09;;;;;;;29.77;16.52;;;;;;;3.33;73.76;95926.53;5050302;28;20045;-77
2022/11/26 07:02:36;;;;;;;32.35;15.63;;;;;;;3.66;73.96;95963.09;5031848;28;20045;-78
2022/11/26 07:05:01;;;;;;;35.25;16.58;;;;;;;3.88;73.91;95980.91;5031832;28;20511;-78
2022/11/26 07:07:27;;;;;;;33.40;17.92;;;;;;;3.89;73.26;95985.09;5050021;28;20124;-78
2022/11/26 07:09:52;;;;;;;27.20;15.27;;;;;;;3.94;73.14;95981.88;5031784;28;20065;-77
2022/11/26 07:12:18;;;;;;;29.40;15.80;;;;;;;3.80;73.21;95962.78;5049401;28;20112;-77
2022/11/26 07:14:43;;;;;;;28.02;15.55;;;;;;;3.95;72.90;95965.09;5049626;28;20427;-78
2022/11/26 07:17:08;;;;;;;28.73;15.38;;;;;;;3.72;72.62;95928.13;5049769;28;20148;-78
2022/11/26 07:19:34;;;;;;;32.97;16.05;;;;;;;4.07;71.89;95979.13;5049255;28;20111;-78
2022/11/26 07:21:59;;;;;;;33.00;16.02;;;;;;;3.93;71.82;95951.38;5031517;28;20739;-78
2022/11/26 07:24:26;;;;;;;26.33;15.77;;;;;;;4.11;72.03;95990.03;5048589;28;20033;-78
2022/11/26 07:26:51;;;;;;;38.35;17.48;;;;;;;3.82;71.94;95938.94;5049426;28;20511;-78
2022/11/26 07:29:17;;;;;;;30.25;16.85;;;;;;;3.66;72.13;95905.38;5049566;28;20037;-77
2022/11/26 07:31:42;;;;;;;26.25;16.08;;;;;;;3.79;71.93;95916.56;5031151;28;20055;-78
2022/11/26 07:34:07;;;;;;;28.33;16.65;;;;;;;4.04;72.27;95945.47;5031703;28;20538;-78
2022/11/26 07:36:33;;;;;;;33.38;17.83;;;;;;;4.16;72.15;95951.63;5031397;28;20119;-78
2022/11/26 07:39:00;;;;;;;35.80;18.40;;;;;;;4.28;71.79;95955.13;5049320;28;20043;-78
2022/11/26 07:41:29;;;;;;;32.10;18.02;;;;;;;4.34;71.90;95955.31;5031054;28;20033;-78
2022/11/26 07:43:54;;;;;;;28.60;18.00;;;;;;;4.42;71.63;95958.47;5030688;28;20103;-78
2022/11/26 07:46:22;;;;;;;33.58;17.80;;;;;;;4.40;71.95;95943.94;5049163;28;20032;-78
2022/11/26 07:48:48;;;;;;;32.03;16.95;;;;;;;4.80;71.33;96007.44;5031406;28;20113;-78
2022/11/26 07:51:20;;;;;;;33.65;16.98;;;;;;;4.75;70.69;96007.25;5048962;28;20075;-77
2022/11/26 07:53:46;;;;;;;29.63;18.30;;;;;;;4.74;70.63;96008.28;5030625;28;20029;-78
2022/11/26 07:56:11;;;;;;;28.52;16.75;;;;;;;4.48;70.09;95944.47;5049639;28;20414;-78
2022/11/26 07:58:37;;;;;;;29.17;17.60;;;;;;;4.79;69.93;95980.34;5049010;28;20033;-77
2022/11/26 08:01:10;;;;;;;39.03;19.77;;;;;;;4.87;69.71;95981.88;5049191;28;20076;-77
2022/11/26 08:03:38;;;;;;;30.13;17.77;;;;;;;4.79;69.74;95988.25;5048799;28;20060;-78
2022/11/26 08:06:12;;;;;;;28.90;18.75;;;;;;;5.03;69.62;96023.38;5049156;28;20049;-77
2022/11/26 08:08:38;;;;;;;31.23;16.80;;;;;;;4.93;68.88;96028.31;5049254;28;20048;-78
2022/11/26 08:11:13;;;;;;;33.70;17.40;;;;;;;4.47;68.90;95958.63;5049293;28;20095;-78
2022/11/26 08:13:39;;;;;;;28.15;15.30;;;;;;;4.66;68.92;96017.25;5030576;28;20052;-78
2022/11/26 08:16:04;;;;;;;32.28;15.82;;;;;;;4.68;69.85;96014.41;5048912;28;20503;-78
2022/11/26 08:18:30;;;;;;;26.38;14.98;;;;;;;4.65;69.13;96019.06;5053832;28;20063;-78
2022/11/26 08:20:56;;;;;;;25.77;15.35;;;;;;;4.55;69.98;96023.22;5031064;28;20516;-78
2022/11/26 08:23:23;;;;;;;25.92;14.50;;;;;;;4.61;70.25;96017.09;5048576;28;20079;-78
2022/11/26 08:25:48;;;;;;;28.30;15.60;;;;;;;4.40;70.12;96020.91;5030984;28;20116;-77
2022/11/26 08:28:14;;;;;;;30.15;17.17;;;;;;;4.68;69.49;96022.28;5048896;28;20148;-78
2022/11/26 08:30:39;;;;;;;26.63;16.67;;;;;;;4.26;68.97;95946.69;5050485;28;20091;-78
2022/11/26 08:33:05;;;;;;;34.10;18.73;;;;;;;4.39;69.38;95953.63;5052285;28;20115;-78
2022/11/26 08:35:30;;;;;;;35.10;17.95;;;;;;;4.79;69.49;96017.16;5052139;28;20041;-78
2022/11/26 08:37:55;;;;;;;32.95;17.30;;;;;;;4.22;70.35;96031.34;5052780;28;20033;-78
2022/11/26 08:40:21;;;;;;;35.00;18.55;;;;;;;3.94;70.65;95966.13;5034422;28;20124;-78
2022/11/26 08:42:46;;;;;;;31.52;16.65;;;;;;;4.53;70.04;96020.00;5052319;28;20033;-77
2022/11/26 08:45:12;;;;;;;24.80;15.93;;;;;;;4.27;69.68;95984.25;5033844;28;20048;-78
2022/11/26 08:47:37;;;;;;;26.05;17.05;;;;;;;4.57;68.93;96019.38;5052466;28;20033;-78
2022/11/26 08:50:03;;;;;;;29.52;18.40;;;;;;;4.32;69.38;95991.47;5034213;28;20029;-77
2022/11/26 08:52:29;;;;;;;26.13;15.40;;;;;;;4.42;70.27;96025.97;5033958;28;20044;-78
2022/11/26 08:54:54;;;;;;;27.33;16.73;;;;;;;4.17;69.68;95955.03;5051765;28;20037;-77
2022/11/26 08:57:19;;;;;;;31.77;18.42;;;;;;;4.11;70.41;95966.41;5052272;28;20071;-77
2022/11/26 08:59:45;;;;;;;31.10;18.65;;;;;;;4.44;69.86;95993.19;5052466;28;20040;-78
2022/11/26 09:02:10;;;;;;;31.85;17.25;;;;;;;4.53;69.17;96033.13;5052274;28;20045;-77
2022/11/26 09:04:37;;;;;;;31.88;15.70;;;;;;;4.23;69.40;95985.69;5033465;28;20037;-78
2022/11/26 09:07:03;;;;;;;25.02;16.77;;;;;;;3.76;69.56;95921.44;5034181;28;20033;-78
2022/11/26 09:09:28;;;;;;;38.78;19.50;;;;;;;4.06;69.63;95958.34;5051941;28;20044;-78
2022/11/26 09:11:59;;;;;;;33.20;20.95;;;;;;;4.76;69.56;96035.97;5033921;28;20415;-77
2022/11/26 09:14:28;;;;;;;31.52;18.58;;;;;;;4.55;69.63;96031.09;5052051;28;20044;-78
2022/11/26 09:16:55;;;;;;;35.83;19.88;;;;;;;4.50;69.24;96012.56;5033536;28;20036;-78
2022/11/26 09:19:21;;;;;;;38.58;21.38;;;;;;;4.73;69.62;96031.13;5051497;28;20513;-79
2022/11/26 09:21:47;;;;;;;38.58;21.08;;;;;;;4.59;68.74;95977.91;5051909;28;20124;-78
2022/11/26 09:24:13;;;;;;;35.58;20.17;;;;;;;4.49;68.26;95919.00;5033843;28;20041;-78
2022/11/26 09:26:39;;;;;;;37.10;20.42;;;;;;;5.00;67.20;95981.75;5051242;28;20040;-79
2022/11/26 09:29:05;;;;;;;33.38;19.80;;;;;;;4.29;67.53;95877.16;5033532;28;20041;-78
2022/11/26 09:31:31;;;;;;;31.05;18.65;;;;;;;5.43;67.21;96019.28;5051617;28;20789;-78
2022/11/26 09:34:01;;;;;;;30.75;18.75;;;;;;;5.62;66.50;96014.00;5051637;28;20041;-78
2022/11/26 09:36:27;;;;;;;35.55;19.95;;;;;;;4.98;66.93;95945.16;5050969;28;20384;-78
2022/11/26 09:38:57;;;;;;;34.63;19.08;;;;;;;5.26;66.23;95986.72;5033317;28;20080;-78
2022/11/26 09:41:41;;;;;;;35.72;19.65;;;;;;;5.64;66.60;96017.22;5032879;28;20045;-78
2022/11/26 09:44:24;;;;;;;28.95;19.42;;;;;;;5.50;66.21;96013.13;5051155;28;20053;-78
2022/11/26 09:47:13;;;;;;;30.27;18.40;;;;;;;5.72;66.24;96009.03;5065934;28;20037;-78
2022/11/26 09:50:06;;;;;;;33.83;18.63;;;;;;;5.75;65.21;96011.19;5025343;28;20045;-78
2022/11/26 09:52:51;;;;;;;27.77;18.10;;;;;;;5.31;64.92;95941.34;5044136;28;20041;-78
2022/11/26 09:55:26;;;;;;;28.45;18.00;;;;;;;5.92;64.79;96014.03;5051228;28;20116;-78
2022/11/26 09:58:11;;;;;;;26.52;16.80;;;;;;;5.99;64.81;96005.03;5050828;28;20041;-78
2022/11/26 10:00:40;;;;;;;36.33;18.23;;;;;;;5.91;64.31;95994.81;5032805;28;20498;-78
2022/11/26 10:03:16;;;;;;;25.38;16.63;;;;;;;6.37;64.61;96002.03;5055554;28;20487;-79
2022/11/26 10:06:04;;;;;;;32.60;16.88;;;;;;;6.86;62.88;95992.91;5050573;28;20045;-78
2022/11/26 10:08:48;;;;;;;25.52;14.68;;;;;;;7.21;61.05;95992.84;5047924;28;20048;-78
2022/11/26 10:11:32;;;;;;;20.42;13.98;;;;;;;7.71;59.15;95985.13;5032739;28;20045;-78
2022/11/26 10:14:30;;;;;;;23.02;14.40;;;;;;;7.98;57.69;95979.28;5032911;28;20132;-78
2022/11/26 10:17:16;;;;;;;24.73;15.52;;;;;;;8.81;56.84;95975.91;5024714;28;20404;-79
2022/11/26 10:20:15;;;;;;;20.33;13.35;;;;;;;9.27;55.00;95974.69;5050653;28;20048;-78
2022/11/26 10:23:16;;;;;;;19.30;12.93;;;;;;;9.48;52.61;95970.44;5050513;28;20045;-79
2022/11/26 10:25:54;;;;;;;18.58;13.38;;;;;;;9.98;51.45;95943.69;5002639;28;20050;-78
2022/11/26 10:28:29;;;;;;;22.95;15.13;;;;;;;10.42;49.80;95971.69;5047099;28;20045;-79
2022/11/26 10:31:08;;;;;;;24.77;15.60;;;;;;;10.32;51.01;95953.03;5050561;28;20047;-79
2022/11/26 10:33:48;;;;;;;26.80;16.08;;;;;;;10.35;49.40;95904.03;5017993;28;20075;-79
2022/11/26 10:36:23;;;;;;;22.55;15.20;;;;;;;10.77;48.66;95919.94;5032188;28;20614;-78
2022/11/26 10:38:48;;;;;;;24.27;16.33;;;;;;;10.88;48.79;95958.75;5049823;28;20041;-78
2022/11/26 10:41:14;;;;;;;26.70;16.17;;;;;;;10.42;49.26;95954.97;5050234;28;20454;-78
2022/11/26 10:43:40;;;;;;;33.38;18.88;;;;;;;10.55;49.35;95951.88;5032086;28;20052;-78
2022/11/26 10:46:05;;;;;;;32.00;17.45;;;;;;;9.58;50.58;95921.03;5049760;28;20033;-79
2022/11/26 10:48:32;;;;;;;25.85;16.73;;;;;;;9.54;51.42;95937.66;5049658;28;20041;-78
2022/11/26 10:51:01;;;;;;;31.50;16.70;;;;;;;9.75;51.40;95965.19;5031778;28;20112;-78
2022/11/26 10:53:30;;;;;;;28.48;17.60;;;;;;;9.48;52.24;95939.47;5031331;28;20064;-79
2022/11/26 10:56:02;;;;;;;31.73;19.02;;;;;;;9.28;51.19;95900.34;5031650;28;20033;-78
2022/11/26 10:58:50;;;;;;;27.20;16.90;;;;;;;9.12;52.55;95964.69;5049488;28;20041;-79
2022/11/26 11:01:15;;;;;;;27.50;16.85;;;;;;;8.88;52.90;95934.22;5029282;28;20041;-78
2022/11/26 11:03:51;;;;;;;32.45;18.13;;;;;;;9.11;52.55;95910.16;5031924;28;20114;-78
2022/11/26 11:06:19;;;;;;;27.23;18.90;;;;;;;9.49;52.40;95959.59;5049680;28;20043;-78
2022/11/26 11:08:50;;;;;;;28.02;17.63;;;;;;;9.50;52.00;95945.31;5031240;28;20412;-78
2022/11/26 11:11:30;;;;;;;28.13;16.75;;;;;;;9.10;51.94;95897.19;5049412;28;20036;-77
2022/11/26 11:13:56;;;;;;;27.08;16.83;;;;;;;9.69;51.28;95945.78;5031407;28;20037;-78
2022/11/26 11:16:36;;;;;;;28.13;18.13;;;;;;;9.71;52.13;95964.06;5049589;28;20511;-77
2022/11/26 11:19:10;;;;;;;27.80;16.70;;;;;;;9.09;51.50;95906.97;5049071;28;20064;-79
2022/11/26 11:21:37;;;;;;;33.28;17.20;;;;;;;9.49;51.69;95964.09;5049625;28;20036;-78
2022/11/26 11:24:22;;;;;;;34.67;16.98;;;;;;;9.49;50.76;95927.03;5031671;28;20501;-78
2022/11/26 11:26:54;;;;;;;28.55;18.17;;;;;;;9.71;50.42;95956.13;5049289;28;20059;-78
2022/11/26 11:29:28;;;;;;;29.10;17.15;;;;;;;9.70;51.14;95955.31;5030880;28;20071;-78
2022/11/26 11:31:56;;;;;;;32.40;17.77;;;;;;;9.58;51.18;95939.59;5064677;28;20541;-78
2022/11/26 11:34:41;;;;;;;25.52;16.15;;;;;;;9.87;50.68;95958.69;5049373;28;20045;-78